Time;durP1;ratioP1;P1;durP2;ratioP2;P2;SDS_P1;SDS_P2;PMS_P1;PMS_P2;Temp;Humidity;BMP_temperature;BMP_pressure;BME280_temperature;BME280_humidity;BME280_pressure;Samples;Min_cycle;Max_cycle;Signal;HPM_P1;HPM_P2
2023/01/12 00:01:32;;;;;;;5.00;0.90;;;17.90;80.60;;;;;;5026188;28;45239;-73
2023/01/12 00:03:59;;;;;;;3.78;1.00;;;17.90;80.00;;;;;;5026249;28;45303;-73
2023/01/12 00:06:25;;;;;;;1.60;0.65;;;17.90;80.40;;;;;;5025998;28;45157;-73
2023/01/12 00:08:54;;;;;;;1.98;0.90;;;18.00;80.80;;;;;;5025668;28;45628;-73
2023/01/12 00:11:21;;;;;;;2.50;0.75;;;18.00;81.00;;;;;;5025894;28;45168;-73
2023/01/12 00:13:48;;;;;;;2.92;0.80;;;18.00;81.10;;;;;;5026172;28;45282;-73
2023/01/12 00:16:36;;;;;;;1.95;0.77;;;18.00;81.20;;;;;;5025867;28;45198;-73
2023/01/12 00:19:05;;;;;;;2.20;0.70;;;18.00;81.10;;;;;;5026133;28;47519;-73
2023/01/12 00:21:48;;;;;;;4.25;0.95;;;18.00;81.30;;;;;;5025403;28;45381;-73
2023/01/12 00:24:20;;;;;;;4.07;0.88;;;18.00;81.20;;;;;;5026009;28;45183;-73
2023/01/12 00:26:48;;;;;;;1.23;0.50;;;18.00;81.20;;;;;;5025912;28;45358;-73
2023/01/12 00:29:15;;;;;;;2.00;0.65;;;18.00;81.20;;;;;;5025841;28;47063;-72
2023/01/12 00:31:42;;;;;;;1.88;0.73;;;18.00;81.00;;;;;;5025813;28;45216;-73
2023/01/12 00:34:09;;;;;;;2.40;0.68;;;18.00;80.90;;;;;;5025962;28;45439;-73
2023/01/12 00:36:36;;;;;;;4.13;1.35;;;18.00;80.50;;;;;;5025704;28;45409;-72
2023/01/12 00:39:03;;;;;;;3.50;0.77;;;18.00;81.50;;;;;;5025351;28;48521;-73
2023/01/12 00:47:00;;;;;;;2.47;0.88;;;17.90;80.70;;;;;;5022908;28;45363;-73
2023/01/12 00:49:27;;;;;;;2.33;0.60;;;17.90;80.60;;;;;;5025687;28;45442;-73
2023/01/12 00:51:53;;;;;;;1.90;0.60;;;17.90;80.60;;;;;;5025402;28;45228;-73
2023/01/12 00:54:20;;;;;;;2.50;0.60;;;17.90;80.10;;;;;;5027079;28;45272;-73
2023/01/12 01:00:11;;;;;;;2.72;0.70;;;17.90;80.20;;;;;;5025992;28;45346;-73
2023/01/12 01:02:38;;;;;;;1.73;0.68;;;17.90;80.70;;;;;;5029075;28;45169;-73
2023/01/12 01:05:06;;;;;;;1.70;0.60;;;17.90;81.00;;;;;;5029200;28;45137;-73
2023/01/12 01:07:33;;;;;;;1.85;0.60;;;18.00;81.20;;;;;;5029132;28;45094;-73
2023/01/12 01:10:00;;;;;;;1.88;0.70;;;18.00;81.10;;;;;;5028799;28;47318;-73
2023/01/12 01:12:27;;;;;;;2.17;0.70;;;18.00;82.20;;;;;;5028664;28;45314;-73
2023/01/12 01:14:53;;;;;;;2.00;0.60;;;18.00;81.20;;;;;;5028793;28;45232;-73
2023/01/12 01:17:22;;;;;;;2.60;1.10;;;18.00;81.00;;;;;;5028917;28;45426;-73
2023/01/12 01:19:48;;;;;;;1.38;0.47;;;18.00;81.20;;;;;;5028141;28;46296;-73
2023/01/12 01:22:15;;;;;;;2.72;0.60;;;18.00;81.00;;;;;;5028661;28;45299;-73
2023/01/12 01:24:42;;;;;;;1.95;0.60;;;18.00;81.00;;;;;;5028692;28;45209;-73
2023/01/12 01:27:09;;;;;;;2.03;0.70;;;18.00;80.90;;;;;;5028810;28;45072;-73
2023/01/12 01:29:36;;;;;;;2.55;0.73;;;18.00;80.70;;;;;;5028199;28;48372;-73
2023/01/12 01:32:02;;;;;;;2.47;0.52;;;18.00;80.50;;;;;;5028399;28;45078;-73
2023/01/12 01:34:30;;;;;;;1.30;0.55;;;18.00;80.50;;;;;;5028562;28;45307;-73
2023/01/12 01:36:58;;;;;;;2.42;0.98;;;18.00;80.50;;;;;;5028827;28;45389;-73
2023/01/12 01:39:24;;;;;;;3.13;0.60;;;18.00;80.40;;;;;;5028381;28;46978;-73
2023/01/12 01:41:52;;;;;;;2.88;0.90;;;18.00;80.70;;;;;;5028109;28;45133;-73
2023/01/12 01:44:49;;;;;;;1.45;0.70;;;18.00;80.50;;;;;;5028200;28;45143;-73
2023/01/12 01:47:25;;;;;;;1.52;0.60;;;18.00;80.40;;;;;;5028442;28;45373;-73
2023/01/12 01:49:55;;;;;;;1.80;0.70;;;17.90;80.00;;;;;;5025187;28;45224;-73
2023/01/12 01:52:27;;;;;;;1.60;0.65;;;18.00;80.30;;;;;;5028236;28;45074;-73
2023/01/12 01:54:58;;;;;;;1.88;0.60;;;18.00;80.20;;;;;;5028490;28;45357;-73
2023/01/12 01:57:31;;;;;;;1.13;0.50;;;17.90;80.30;;;;;;5028383;28;45409;-73
2023/01/12 02:00:00;;;;;;;1.92;0.60;;;18.00;80.80;;;;;;5028043;28;45761;-73
2023/01/12 02:05:51;;;;;;;1.70;0.60;;;18.00;81.20;;;;;;5023944;28;45211;-73
2023/01/12 02:08:26;;;;;;;1.52;0.80;;;18.00;81.20;;;;;;5028063;28;45148;-73
2023/01/12 02:10:55;;;;;;;2.95;0.65;;;18.00;81.10;;;;;;5027833;28;45330;-73
2023/01/12 02:16:20;;;;;;;3.97;1.05;;;18.00;81.20;;;;;;5028323;28;45097;-73
2023/01/12 02:19:00;;;;;;;5.45;1.30;;;18.00;81.10;;;;;;5027833;28;45467;-73
2023/01/12 02:21:57;;;;;;;3.58;0.70;;;18.00;81.20;;;;;;5027141;28;45225;-73
2023/01/12 02:24:40;;;;;;;1.38;0.68;;;18.00;80.90;;;;;;5027347;28;46274;-73
2023/01/12 02:31:04;;;;;;;3.50;1.23;;;18.00;80.30;;;;;;5024946;28;45251;-73
2023/01/12 02:33:44;;;;;;;1.52;0.50;;;18.00;81.20;;;;;;5007805;28;45339;-73
2023/01/12 02:36:19;;;;;;;5.00;0.85;;;18.00;80.30;;;;;;5027466;28;45137;-73
2023/01/12 02:38:51;;;;;;;3.35;0.70;;;18.00;80.40;;;;;;5027502;28;45133;-73
2023/01/12 02:42:39;;;;;;;3.80;1.10;;;17.90;80.20;;;;;;5024746;28;45209;-73
2023/01/12 02:44:22;;;;;;;3.20;0.75;;;18.00;80.30;;;;;;5026788;28;46142;-73
2023/01/12 02:46:51;;;;;;;4.28;0.95;;;18.00;80.10;;;;;;5027518;28;45176;-73
2023/01/12 02:49:22;;;;;;;2.33;0.80;;;18.00;80.20;;;;;;5027408;28;45071;-73
2023/01/12 02:51:53;;;;;;;3.25;1.13;;;17.90;79.90;;;;;;5027953;28;45243;-73
2023/01/12 02:54:23;;;;;;;3.53;0.82;;;17.90;80.10;;;;;;5029502;28;47042;-73
2023/01/12 02:56:52;;;;;;;3.10;0.82;;;18.00;80.70;;;;;;5027064;28;45238;-73
2023/01/12 02:59:22;;;;;;;4.60;0.90;;;18.00;80.80;;;;;;5027124;28;45124;-73
2023/01/12 03:01:53;;;;;;;3.47;0.70;;;18.00;80.70;;;;;;5027679;28;45393;-73
2023/01/12 03:04:22;;;;;;;2.53;0.82;;;18.00;80.90;;;;;;5027039;28;47302;-73
2023/01/12 03:07:16;;;;;;;2.25;0.70;;;18.00;80.80;;;;;;5027088;28;46053;-73
2023/01/12 03:09:47;;;;;;;2.10;0.70;;;18.00;80.80;;;;;;5027254;28;45160;-73
2023/01/12 03:15:39;;;;;;;1.70;0.77;;;18.00;80.70;;;;;;5023975;28;45307;-73
2023/01/12 03:18:13;;;;;;;2.85;0.90;;;18.00;80.70;;;;;;5026182;28;45326;-73
2023/01/12 03:20:46;;;;;;;2.80;1.33;;;18.00;80.30;;;;;;5026614;28;45342;-73
2023/01/12 03:23:16;;;;;;;3.45;0.90;;;18.00;80.30;;;;;;5027129;28;45402;-73
2023/01/12 03:25:44;;;;;;;1.58;0.68;;;18.00;80.30;;;;;;5026444;28;46264;-73
2023/01/12 03:28:14;;;;;;;2.50;1.02;;;18.00;80.30;;;;;;5026451;28;46201;-73
2023/01/12 03:30:44;;;;;;;3.70;0.77;;;18.00;80.30;;;;;;5026438;28;45280;-73
2023/01/12 03:33:13;;;;;;;3.00;0.95;;;18.00;80.30;;;;;;5026846;28;45282;-73
2023/01/12 03:35:49;;;;;;;1.13;0.52;;;18.00;80.30;;;;;;5026521;28;46323;-73
2023/01/12 03:38:24;;;;;;;1.15;0.40;;;18.00;80.20;;;;;;5026265;28;45303;-74
2023/01/12 03:40:59;;;;;;;2.83;0.75;;;18.00;80.10;;;;;;5026701;28;45203;-73
2023/01/12 03:43:30;;;;;;;2.83;0.90;;;18.00;80.10;;;;;;5026666;28;45149;-74
2023/01/12 03:46:01;;;;;;;2.03;0.70;;;18.00;80.00;;;;;;5026549;28;47795;-74
2023/01/12 03:48:35;;;;;;;2.05;0.65;;;17.90;79.80;;;;;;5026684;28;45294;-73
2023/01/12 03:54:26;;;;;;;3.50;0.75;;;18.00;80.50;;;;;;5023616;28;45275;-73
2023/01/12 03:56:54;;;;;;;2.35;0.90;;;18.00;80.60;;;;;;5025835;28;45180;-73
2023/01/12 03:59:21;;;;;;;2.78;0.63;;;18.00;80.50;;;;;;5026104;28;45172;-73
2023/01/12 04:01:49;;;;;;;1.75;0.65;;;18.00;80.70;;;;;;5026402;28;45230;-73
2023/01/12 04:04:17;;;;;;;1.50;0.60;;;18.00;80.70;;;;;;5026233;28;45215;-73
2023/01/12 04:06:43;;;;;;;2.45;0.75;;;18.00;80.60;;;;;;5025901;28;47177;-73
2023/01/12 04:09:10;;;;;;;1.98;0.60;;;18.00;80.50;;;;;;5026182;28;45248;-73
2023/01/12 04:14:21;;;;;;;0.73;0.40;;;18.00;80.50;;;;;;5026766;28;45181;-73
2023/01/12 04:16:48;;;;;;;4.65;0.88;;;18.00;80.20;;;;;;5025674;28;46577;-73
2023/01/12 04:19:16;;;;;;;1.23;0.60;;;18.00;79.80;;;;;;5026089;28;45435;-73
2023/01/12 04:24:27;;;;;;;1.55;0.60;;;18.00;79.60;;;;;;5026633;28;45227;-73
2023/01/12 04:30:19;;;;;;;2.88;0.90;;;18.00;80.00;;;;;;5022492;28;45267;-73
2023/01/12 04:32:46;;;;;;;2.50;0.60;;;17.90;79.60;;;;;;5008398;28;45180;-73
2023/01/12 04:35:16;;;;;;;2.33;0.80;;;18.00;79.80;;;;;;5026067;28;45126;-72
2023/01/12 04:37:43;;;;;;;2.17;0.80;;;17.90;79.50;;;;;;5025798;28;46570;-73
2023/01/12 04:40:12;;;;;;;2.90;0.70;;;17.90;78.90;;;;;;5027947;28;45175;-73
2023/01/12 04:43:03;;;;;;;1.98;0.60;;;17.90;78.90;;;;;;5025933;28;45128;-73
2023/01/12 04:45:32;;;;;;;1.80;0.68;;;17.90;79.30;;;;;;5025866;28;45269;-73
2023/01/12 04:48:02;;;;;;;3.28;0.88;;;17.90;79.20;;;;;;5025544;28;45179;-73
2023/01/12 04:50:30;;;;;;;2.65;0.77;;;17.90;79.90;;;;;;5025388;28;46038;-73
2023/01/12 04:52:57;;;;;;;1.75;0.60;;;18.00;79.90;;;;;;5025704;28;45248;-73
2023/01/12 04:55:24;;;;;;;1.88;0.65;;;18.00;79.90;;;;;;5025647;28;45123;-73
2023/01/12 04:57:51;;;;;;;1.10;0.38;;;18.00;80.00;;;;;;5025302;28;46988;-73
2023/01/12 05:00:18;;;;;;;1.35;0.50;;;18.00;79.90;;;;;;5025317;28;45168;-73
2023/01/12 05:02:45;;;;;;;3.38;0.77;;;18.00;79.90;;;;;;5025575;28;45171;-72
2023/01/12 05:05:12;;;;;;;4.30;0.70;;;18.00;79.80;;;;;;5025472;28;45377;-73
2023/01/12 05:11:02;;;;;;;3.08;0.77;;;17.90;79.60;;;;;;5022519;28;45160;-73
2023/01/12 05:13:30;;;;;;;2.03;0.60;;;17.90;79.60;;;;;;5025529;28;45206;-73
2023/01/12 05:15:57;;;;;;;2.45;0.60;;;17.90;79.60;;;;;;5025657;28;45494;-73
2023/01/12 05:18:24;;;;;;;3.95;0.63;;;17.90;79.70;;;;;;5025063;28;46583;-73
2023/01/12 05:20:51;;;;;;;1.55;0.50;;;17.90;80.00;;;;;;5024553;28;45134;-73
2023/01/12 05:23:17;;;;;;;2.60;0.50;;;17.80;80.10;;;;;;5025201;28;45125;-73
2023/01/12 05:25:44;;;;;;;1.80;0.77;;;17.80;80.30;;;;;;5025251;28;45118;-73
2023/01/12 05:28:13;;;;;;;2.33;0.60;;;17.80;80.50;;;;;;5025144;28;46371;-73
2023/01/12 05:30:39;;;;;;;2.72;0.60;;;17.80;80.60;;;;;;5025050;28;45229;-73
2023/01/12 05:33:06;;;;;;;1.33;0.60;;;17.80;80.20;;;;;;5025216;28;45171;-73
2023/01/12 05:35:33;;;;;;;1.45;0.47;;;17.80;80.10;;;;;;5025288;28;45424;-73
2023/01/12 05:38:00;;;;;;;1.95;0.70;;;17.80;80.10;;;;;;5025018;28;45331;-73
2023/01/12 05:40:27;;;;;;;0.93;0.40;;;17.70;80.10;;;;;;5026721;28;45332;-73
2023/01/12 05:45:39;;;;;;;1.02;0.47;;;17.80;80.50;;;;;;5029056;28;45220;-73
2023/01/12 05:48:08;;;;;;;3.08;0.70;;;17.80;80.30;;;;;;5027941;28;46304;-73
2023/01/12 05:50:35;;;;;;;3.33;0.60;;;17.80;79.90;;;;;;5028193;28;45084;-73
2023/01/12 05:53:02;;;;;;;1.27;0.52;;;17.80;79.70;;;;;;5028116;28;45293;-73
2023/01/12 05:55:28;;;;;;;2.53;0.73;;;17.80;79.40;;;;;;5028195;28;45191;-73
2023/01/12 05:57:55;;;;;;;1.38;0.50;;;17.80;79.50;;;;;;5027706;28;48027;-73
2023/01/12 06:00:22;;;;;;;1.27;0.50;;;17.80;79.40;;;;;;5027816;28;45255;-73
2023/01/12 06:02:51;;;;;;;1.30;0.55;;;17.90;79.20;;;;;;5027872;28;45124;-73
2023/01/12 06:05:17;;;;;;;1.98;0.60;;;17.90;79.00;;;;;;5028145;28;45242;-73
2023/01/12 06:07:44;;;;;;;1.98;0.60;;;17.90;79.00;;;;;;5027610;28;47679;-73
2023/01/12 06:10:12;;;;;;;1.27;0.50;;;17.90;79.00;;;;;;5027574;28;45447;-73
2023/01/12 06:15:23;;;;;;;1.45;0.57;;;17.90;79.10;;;;;;5025149;28;45125;-73
2023/01/12 06:17:51;;;;;;;2.58;0.65;;;17.80;79.00;;;;;;5027366;28;48321;-75
2023/01/12 06:20:18;;;;;;;2.67;0.50;;;17.80;79.20;;;;;;5027468;28;45172;-72
2023/01/12 06:22:45;;;;;;;1.92;0.60;;;17.80;79.40;;;;;;5027494;28;45176;-73
2023/01/12 06:25:12;;;;;;;0.85;0.32;;;17.80;79.50;;;;;;5027309;28;45145;-72
2023/01/12 06:27:39;;;;;;;1.20;0.63;;;17.80;79.70;;;;;;5027190;28;45450;-72
2023/01/12 06:30:07;;;;;;;2.03;0.75;;;17.80;79.80;;;;;;5027229;28;45302;-73
2023/01/12 06:32:34;;;;;;;1.45;0.52;;;17.80;79.80;;;;;;5028040;28;45272;-72
2023/01/12 06:44:31;;;;;;;1.38;0.43;;;17.80;80.00;;;;;;5027663;28;45172;-72
2023/01/12 06:46:57;;;;;;;1.60;0.40;;;17.90;79.90;;;;;;5027558;28;45173;-73
2023/01/12 06:49:24;;;;;;;1.42;0.47;;;17.90;80.00;;;;;;5027247;28;47682;-73
2023/01/12 06:51:51;;;;;;;0.40;0.30;;;17.90;79.80;;;;;;5026490;28;45317;-73
2023/01/12 06:54:18;;;;;;;1.42;0.50;;;17.90;79.60;;;;;;5027192;28;45091;-73
2023/01/12 06:56:46;;;;;;;1.75;0.50;;;17.90;79.40;;;;;;5027389;28;45398;-73
2023/01/12 06:59:13;;;;;;;1.83;0.50;;;17.90;79.30;;;;;;5026781;28;45304;-73
2023/01/12 07:01:41;;;;;;;2.65;0.60;;;17.90;79.10;;;;;;5026746;28;45687;-73
2023/01/12 07:04:08;;;;;;;2.97;0.50;;;17.90;78.80;;;;;;5027041;28;45124;-73
2023/01/12 07:06:35;;;;;;;1.67;0.60;;;17.90;79.00;;;;;;5027352;28;45401;-73
2023/01/12 07:09:02;;;;;;;1.15;0.43;;;17.80;78.90;;;;;;5026582;28;46625;-72
2023/01/12 07:11:28;;;;;;;1.70;0.50;;;17.80;79.00;;;;;;5026386;28;46276;-72
2023/01/12 07:13:56;;;;;;;2.33;0.57;;;17.80;78.90;;;;;;5026845;28;45207;-73
2023/01/12 07:19:45;;;;;;;2.13;0.50;;;17.80;78.50;;;;;;5024982;28;45234;-73
2023/01/12 07:22:12;;;;;;;1.23;0.60;;;17.80;78.70;;;;;;5026297;28;45203;-73
2023/01/12 07:24:39;;;;;;;2.08;0.70;;;17.80;78.50;;;;;;5026354;28;45266;-73
2023/01/12 07:27:06;;;;;;;3.00;0.65;;;17.80;78.50;;;;;;5026221;28;45469;-72
2023/01/12 07:29:34;;;;;;;2.78;0.77;;;17.80;78.60;;;;;;5026190;28;47025;-72
2023/01/12 07:32:01;;;;;;;1.70;0.40;;;17.80;78.70;;;;;;5026697;28;45280;-73
2023/01/12 07:34:28;;;;;;;1.05;0.38;;;17.70;78.60;;;;;;5026537;28;45185;-72
2023/01/12 07:43:39;;;;;;;0.95;0.40;;;17.80;79.00;;;;;;5023522;28;45231;-73
2023/01/12 07:46:07;;;;;;;1.50;0.57;;;17.80;80.20;;;;;;5026575;28;45360;-73
2023/01/12 07:48:34;;;;;;;1.65;0.50;;;17.80;79.00;;;;;;5026503;28;45334;-73
2023/01/12 07:51:01;;;;;;;3.20;0.52;;;17.80;79.10;;;;;;5026177;28;47306;-73
2023/01/12 07:53:28;;;;;;;0.88;0.40;;;17.80;79.20;;;;;;5026419;28;45223;-73
2023/01/12 07:55:54;;;;;;;1.65;0.40;;;17.80;79.30;;;;;;5026174;28;45294;-73
2023/01/12 07:58:21;;;;;;;1.73;0.63;;;17.80;79.40;;;;;;5026121;28;45541;-73
2023/01/12 08:00:48;;;;;;;0.40;0.30;;;17.80;79.40;;;;;;5026204;28;46652;-73
2023/01/12 08:03:16;;;;;;;0.95;0.50;;;17.80;79.60;;;;;;5026232;28;45269;-73
2023/01/12 08:05:43;;;;;;;2.53;0.60;;;17.80;79.50;;;;;;5026325;28;45228;-73
2023/01/12 08:08:38;;;;;;;1.00;0.47;;;17.80;79.60;;;;;;5026332;28;45236;-73
2023/01/12 08:11:07;;;;;;;1.25;0.57;;;17.80;79.70;;;;;;5026009;28;45365;-72
2023/01/12 08:13:34;;;;;;;1.85;0.25;;;17.80;79.70;;;;;;5025816;28;45136;-73
2023/01/12 08:16:05;;;;;;;0.52;0.30;;;17.80;79.60;;;;;;5026252;28;45198;-73
2023/01/12 08:18:38;;;;;;;1.55;0.50;;;17.80;79.60;;;;;;5026251;28;45608;-72
2023/01/12 08:21:09;;;;;;;0.63;0.40;;;17.80;79.60;;;;;;5025401;28;45462;-73
2023/01/12 08:23:40;;;;;;;2.53;0.50;;;17.80;79.50;;;;;;5025718;28;45309;-75
2023/01/12 08:26:15;;;;;;;1.05;0.47;;;17.80;79.50;;;;;;5025740;28;45341;-74
2023/01/12 08:28:46;;;;;;;9.07;0.90;;;17.90;78.90;;;;;;5025410;28;45556;-74
2023/01/12 08:31:17;;;;;;;2.63;0.50;;;17.90;78.50;;;;;;5025644;28;46833;-74
2023/01/12 08:37:10;;;;;;;3.65;0.85;;;17.90;79.00;;;;;;5023033;28;45218;-75
2023/01/12 08:42:59;;;;;;;2.65;0.60;;;17.80;79.40;;;;;;5022810;28;45133;-75
2023/01/12 08:45:26;;;;;;;1.40;0.47;;;17.80;79.60;;;;;;5025917;28;45196;-75
2023/01/12 08:47:53;;;;;;;1.92;0.32;;;17.80;80.20;;;;;;5025566;28;45089;-75
2023/01/12 08:50:20;;;;;;;0.65;0.32;;;17.80;79.10;;;;;;5025823;28;45396;-75
2023/01/12 08:52:48;;;;;;;1.45;0.50;;;17.80;78.90;;;;;;5025710;28;47528;-75
2023/01/12 08:55:15;;;;;;;2.45;0.70;;;17.90;78.90;;;;;;5025687;28;46430;-75
2023/01/12 08:57:42;;;;;;;1.75;0.43;;;17.90;78.70;;;;;;5025823;28;45158;-75
2023/01/12 09:00:11;;;;;;;1.23;0.52;;;17.80;78.60;;;;;;5025384;28;45291;-75
2023/01/12 09:06:02;;;;;;;1.35;0.35;;;17.80;78.40;;;;;;5022890;28;45358;-76
2023/01/12 09:08:34;;;;;;;1.35;0.30;;;17.90;78.40;;;;;;5025306;28;45182;-76
2023/01/12 09:11:03;;;;;;;1.77;0.50;;;17.90;78.30;;;;;;5025643;28;45488;-76
2023/01/12 09:13:32;;;;;;;2.45;0.38;;;17.90;78.20;;;;;;5025255;28;45922;-76
2023/01/12 09:16:04;;;;;;;0.82;0.35;;;17.90;78.30;;;;;;5027597;28;45273;-76
2023/01/12 09:18:32;;;;;;;1.67;0.47;;;17.90;78.30;;;;;;5028635;28;45147;-76
2023/01/12 09:21:04;;;;;;;2.13;0.40;;;17.90;78.10;;;;;;5028443;28;45594;-76
2023/01/12 09:23:35;;;;;;;0.70;0.20;;;17.90;78.20;;;;;;5028195;28;45797;-76
2023/01/12 09:26:06;;;;;;;1.02;0.40;;;17.90;78.20;;;;;;5028426;28;45323;-76
2023/01/12 09:28:35;;;;;;;2.83;0.82;;;17.90;77.90;;;;;;5028782;28;45167;-76
2023/01/12 09:31:03;;;;;;;0.98;0.32;;;17.90;77.70;;;;;;5028715;28;45445;-76
2023/01/12 09:33:31;;;;;;;1.20;0.35;;;17.90;77.40;;;;;;5028497;28;46822;-75
2023/01/12 09:36:02;;;;;;;1.60;0.30;;;18.00;77.30;;;;;;5028711;28;45219;-74
2023/01/12 09:38:29;;;;;;;2.30;0.60;;;17.90;77.50;;;;;;5028660;28;45144;-74
2023/01/12 09:41:01;;;;;;;3.17;0.47;;;17.90;77.60;;;;;;5028897;28;45664;-75
2023/01/12 09:49:12;;;;;;;1.25;0.40;;;17.90;77.30;;;;;;5028946;28;45294;-75
2023/01/12 09:51:46;;;;;;;0.60;0.22;;;17.90;77.30;;;;;;5028295;28;45507;-74
2023/01/12 09:54:13;;;;;;;1.08;0.30;;;17.90;77.30;;;;;;5028645;28;47908;-74
2023/01/12 09:56:51;;;;;;;1.10;0.38;;;18.00;77.30;;;;;;5028200;28;45220;-74
2023/01/12 09:59:33;;;;;;;1.27;0.65;;;17.90;77.50;;;;;;5028225;28;45207;-75
2023/01/12 10:02:00;;;;;;;1.90;0.47;;;18.00;77.50;;;;;;5025705;28;45404;-75
2023/01/12 10:04:27;;;;;;;1.20;0.30;;;17.90;77.60;;;;;;5027820;28;45217;-75
2023/01/12 10:06:55;;;;;;;0.57;0.28;;;17.90;78.60;;;;;;5028461;28;45273;-75
2023/01/12 10:09:23;;;;;;;2.00;0.30;;;18.00;77.70;;;;;;5028363;28;45185;-75
2023/01/12 10:11:58;;;;;;;0.25;0.20;;;18.00;77.70;;;;;;5028285;28;45194;-75
2023/01/12 10:14:43;;;;;;;1.52;0.50;;;18.00;77.70;;;;;;5028018;28;48854;-76
2023/01/12 10:20:37;;;;;;;2.50;0.40;;;18.00;77.70;;;;;;5025274;28;45271;-75
2023/01/12 10:23:13;;;;;;;1.10;0.25;;;18.00;77.90;;;;;;5025032;28;45176;-76
2023/01/12 10:25:42;;;;;;;0.93;0.30;;;18.00;77.90;;;;;;5027392;28;48352;-75
2023/01/12 10:28:18;;;;;;;0.77;0.22;;;18.00;78.50;;;;;;5026968;28;45219;-76
2023/01/12 10:30:46;;;;;;;0.98;0.30;;;18.00;77.10;;;;;;5027740;28;45317;-76
2023/01/12 10:33:17;;;;;;;2.60;0.55;;;18.00;76.50;;;;;;5027384;28;45529;-76
2023/01/12 10:35:53;;;;;;;1.52;0.50;;;18.00;76.50;;;;;;5027080;28;46557;-75
2023/01/12 10:38:27;;;;;;;1.90;0.50;;;18.00;76.50;;;;;;5027241;28;45179;-75
2023/01/12 10:41:15;;;;;;;1.48;0.40;;;18.00;76.50;;;;;;5027624;28;45206;-77
2023/01/12 10:44:05;;;;;;;0.30;0.28;;;18.10;76.30;;;;;;5027241;28;45230;-75
2023/01/12 10:46:35;;;;;;;1.98;0.40;;;18.10;76.00;;;;;;5027596;28;45575;-76
2023/01/12 10:49:18;;;;;;;1.08;0.30;;;18.10;76.20;;;;;;5027047;28;45208;-75
2023/01/12 10:51:51;;;;;;;1.27;0.30;;;18.00;76.30;;;;;;5027487;28;45224;-75
2023/01/12 10:54:22;;;;;;;1.40;0.40;;;18.00;76.50;;;;;;5027470;28;45141;-74
2023/01/12 10:56:56;;;;;;;0.70;0.20;;;18.00;76.50;;;;;;5027225;28;48817;-74
2023/01/12 10:59:28;;;;;;;0.77;0.30;;;18.00;76.50;;;;;;5027001;28;45228;-75
2023/01/12 11:02:13;;;;;;;1.15;0.40;;;18.00;76.50;;;;;;5027361;28;45368;-75
2023/01/12 11:04:41;;;;;;;2.05;0.30;;;18.00;76.90;;;;;;5027023;28;45211;-75
2023/01/12 11:07:10;;;;;;;1.23;0.40;;;17.90;77.40;;;;;;5026817;28;46354;-75
2023/01/12 11:09:38;;;;;;;0.30;0.20;;;17.90;77.40;;;;;;5027021;28;45275;-74
2023/01/12 11:12:23;;;;;;;0.80;0.30;;;17.90;77.70;;;;;;5027016;28;45342;-74
2023/01/12 11:15:01;;;;;;;1.45;0.30;;;17.90;77.90;;;;;;5027165;28;45390;-75
2023/01/12 11:20:54;;;;;;;0.88;0.45;;;17.90;77.70;;;;;;5024753;28;45255;-74
2023/01/12 11:23:28;;;;;;;1.73;0.47;;;17.90;77.50;;;;;;5023975;28;45262;-74
2023/01/12 11:29:33;;;;;;;2.35;0.30;;;18.00;77.30;;;;;;5023736;28;45681;-74
2023/01/12 11:32:06;;;;;;;0.50;0.20;;;18.00;77.30;;;;;;5026635;28;45253;-74
2023/01/12 11:37:58;;;;;;;1.85;0.40;;;18.00;77.40;;;;;;5023557;28;45116;-73
2023/01/12 11:40:30;;;;;;;1.50;0.50;;;18.00;77.30;;;;;;5026396;28;48300;-73
2023/01/12 11:49:18;;;;;;;0.60;0.35;;;18.00;77.10;;;;;;5023702;28;45284;-73
2023/01/12 11:51:49;;;;;;;0.75;0.35;;;18.00;77.10;;;;;;5026406;28;47108;-73
2023/01/12 11:54:18;;;;;;;1.00;0.50;;;18.00;77.10;;;;;;5026377;28;45313;-74
2023/01/12 11:57:19;;;;;;;3.63;0.50;;;18.00;77.10;;;;;;5026154;28;45297;-73
2023/01/12 12:00:02;;;;;;;0.80;0.28;;;18.00;77.10;;;;;;5026319;28;45105;-74
2023/01/12 12:02:35;;;;;;;0.70;0.28;;;18.00;77.20;;;;;;5026185;28;45720;-74
2023/01/12 12:05:16;;;;;;;0.22;0.15;;;18.00;77.30;;;;;;5026197;28;45203;-73
2023/01/12 12:07:55;;;;;;;0.63;0.32;;;18.00;77.10;;;;;;5026376;28;45149;-73
2023/01/12 12:10:24;;;;;;;0.70;0.30;;;18.00;77.20;;;;;;5026466;28;45564;-74
2023/01/12 12:13:18;;;;;;;2.60;0.40;;;18.00;77.00;;;;;;5025753;28;46565;-73
2023/01/12 12:15:54;;;;;;;1.55;0.30;;;18.00;77.10;;;;;;5025918;28;45065;-73
2023/01/12 12:18:36;;;;;;;0.20;0.20;;;18.00;77.20;;;;;;5026228;28;45123;-73
2023/01/12 12:21:16;;;;;;;1.38;0.32;;;18.00;77.10;;;;;;5025778;28;45374;-74
2023/01/12 12:23:52;;;;;;;1.17;0.30;;;18.10;76.90;;;;;;5026007;28;48490;-73
2023/01/12 12:26:26;;;;;;;0.45;0.30;;;18.10;76.80;;;;;;5025786;28;45230;-73
2023/01/12 12:29:10;;;;;;;15.82;1.20;;;18.10;76.80;;;;;;5024518;28;45247;-73
2023/01/12 12:31:51;;;;;;;9.15;0.88;;;18.10;79.00;;;;;;5030739;28;45353;-72
2023/01/12 12:34:40;;;;;;;15.20;1.30;;;18.20;81.10;;;;;;5020895;28;45442;-71
2023/01/12 12:37:17;;;;;;;4.97;0.88;;;18.30;80.10;;;;;;5023281;28;45331;-71
2023/01/12 12:39:54;;;;;;;8.55;0.70;;;18.30;79.10;;;;;;5024102;28;45311;-71
2023/01/12 12:45:29;;;;;;;3.95;0.63;;;18.20;78.40;;;;;;5024353;28;45788;-72
2023/01/12 12:48:01;;;;;;;7.18;0.95;;;18.20;78.20;;;;;;5023829;28;45279;-67
2023/01/12 12:50:32;;;;;;;21.35;2.10;;;18.20;78.80;;;;;;5027167;28;45402;-73
2023/01/12 12:53:14;;;;;;;6.40;0.90;;;18.30;78.80;;;;;;5026678;28;45051;-72
2023/01/12 12:55:42;;;;;;;6.22;0.80;;;18.30;78.90;;;;;;5028474;28;48233;-73
2023/01/12 12:58:27;;;;;;;1.95;0.50;;;18.20;79.00;;;;;;5029287;28;45164;-73
2023/01/12 13:01:15;;;;;;;3.15;0.80;;;18.10;79.30;;;;;;5028734;28;45329;-72
2023/01/12 13:03:46;;;;;;;1.33;0.52;;;18.10;79.70;;;;;;5028832;28;45357;-72
2023/01/12 13:06:19;;;;;;;4.95;0.60;;;18.10;79.70;;;;;;5028613;28;47020;-72
2023/01/12 13:08:50;;;;;;;2.57;0.70;;;18.10;80.00;;;;;;5027539;28;45339;-73
2023/01/12 13:11:18;;;;;;;6.65;0.60;;;18.10;80.20;;;;;;5029090;28;45215;-73
2023/01/12 13:13:59;;;;;;;2.90;0.80;;;18.10;80.30;;;;;;5028101;28;45092;-73
2023/01/12 13:16:47;;;;;;;3.23;0.60;;;18.10;80.50;;;;;;5025483;28;46498;-74
2023/01/12 13:19:33;;;;;;;1.75;0.60;;;18.20;80.60;;;;;;5029160;28;45532;-74
2023/01/12 13:22:26;;;;;;;3.88;0.70;;;18.20;80.60;;;;;;5027743;28;45330;-74
2023/01/12 13:24:55;;;;;;;2.67;0.70;;;18.20;80.90;;;;;;5027836;28;45415;-74
2023/01/12 13:27:47;;;;;;;4.47;0.70;;;18.20;80.80;;;;;;5030271;28;46617;-75
2023/01/12 13:30:39;;;;;;;2.50;0.60;;;18.20;81.00;;;;;;5028643;28;45251;-74
2023/01/12 13:33:21;;;;;;;2.42;0.60;;;18.30;81.20;;;;;;5027642;28;45422;-74
2023/01/12 13:36:08;;;;;;;1.75;0.57;;;18.30;81.20;;;;;;5027829;28;45545;-74
2023/01/12 13:38:44;;;;;;;1.10;0.30;;;18.30;81.40;;;;;;5028286;28;46614;-74
2023/01/12 13:44:39;;;;;;;0.45;0.30;;;18.30;81.40;;;;;;5025679;28;45202;-74
2023/01/12 13:47:10;;;;;;;0.70;0.40;;;18.30;81.50;;;;;;5028775;28;45288;-74
2023/01/12 13:49:46;;;;;;;0.77;0.35;;;18.30;81.50;;;;;;5028301;28;48043;-74
2023/01/12 13:52:22;;;;;;;1.13;0.50;;;18.30;81.60;;;;;;5028637;28;45256;-74
2023/01/12 13:54:50;;;;;;;0.88;0.45;;;18.30;81.60;;;;;;5028649;28;45190;-74
2023/01/12 13:57:20;;;;;;;0.50;0.22;;;18.30;81.50;;;;;;5028136;28;45568;-74
2023/01/12 14:00:03;;;;;;;0.43;0.30;;;18.30;81.50;;;;;;5027833;28;45164;-74
2023/01/12 14:02:32;;;;;;;0.88;0.40;;;18.30;81.60;;;;;;5028144;28;45212;-74
2023/01/12 14:05:17;;;;;;;0.35;0.30;;;18.30;81.70;;;;;;5028296;28;45265;-74
2023/01/12 14:07:55;;;;;;;2.10;0.70;;;18.30;81.70;;;;;;5028352;28;45494;-74
2023/01/12 14:10:36;;;;;;;0.95;0.50;;;18.30;81.70;;;;;;5028034;28;46293;-74
2023/01/12 14:13:18;;;;;;;1.00;0.43;;;18.30;81.50;;;;;;5028011;28;45171;-74
2023/01/12 14:18:41;;;;;;;1.23;0.57;;;18.40;81.50;;;;;;5028540;28;45358;-74
2023/01/12 14:21:22;;;;;;;1.58;0.55;;;18.40;81.50;;;;;;5027421;28;47618;-74
2023/01/12 14:23:49;;;;;;;2.53;0.43;;;18.50;82.30;;;;;;5027825;28;45117;-74
2023/01/12 14:26:21;;;;;;;0.73;0.43;;;18.60;83.10;;;;;;5027515;28;45236;-74
2023/01/12 14:28:50;;;;;;;1.92;0.73;;;18.60;81.50;;;;;;5027984;28;45544;-73
2023/01/12 14:31:26;;;;;;;1.00;0.38;;;18.50;81.20;;;;;;5027499;28;45603;-73
2023/01/12 14:33:55;;;;;;;0.60;0.35;;;18.50;80.90;;;;;;5024926;28;45191;-74
2023/01/12 14:36:26;;;;;;;0.75;0.22;;;18.50;81.00;;;;;;5027731;28;45110;-74
2023/01/12 14:38:54;;;;;;;1.25;0.50;;;18.40;81.20;;;;;;5027451;28;45306;-74
2023/01/12 14:47:03;;;;;;;0.63;0.30;;;18.40;81.70;;;;;;5024840;28;45220;-73
2023/01/12 14:49:31;;;;;;;0.45;0.22;;;18.30;81.90;;;;;;5027578;28;45157;-74
2023/01/12 14:51:59;;;;;;;1.08;0.20;;;18.30;82.00;;;;;;5026887;28;48242;-72
2023/01/12 14:54:28;;;;;;;1.15;0.20;;;18.30;82.30;;;;;;5026262;28;45246;-71
2023/01/12 14:57:17;;;;;;;0.90;0.40;;;18.30;82.10;;;;;;5026056;28;45300;-72
2023/01/12 14:59:46;;;;;;;0.25;0.15;;;18.30;81.90;;;;;;5026659;28;45213;-72
2023/01/12 15:02:36;;;;;;;0.73;0.30;;;18.20;82.00;;;;;;5026376;28;48022;-72